sensor_id;sensor_type;location;lat;lon;timestamp;P1;durP1;ratioP1;P2;durP2;ratioP2
37945;SDS011;23769;52.478;13.448;2023-11-21T00:00:52;6.20;;;4.35;;
37945;SDS011;23769;52.478;13.448;2023-11-21T00:03:19;9.82;;;5.13;;
37945;SDS011;23769;52.478;13.448;2023-11-21T00:05:48;8.15;;;6.18;;
37945;SDS011;23769;52.478;13.448;2023-11-21T00:08:15;10.27;;;6.63;;
37945;SDS011;23769;52.478;13.448;2023-11-21T00:10:43;9.25;;;6.13;;
37945;SDS011;23769;52.478;13.448;2023-11-21T00:13:11;11.05;;;7.40;;
37945;SDS011;23769;52.478;13.448;2023-11-21T00:15:38;12.50;;;7.80;;
37945;SDS011;23769;52.478;13.448;2023-11-21T00:18:07;13.07;;;8.13;;
37945;SDS011;23769;52.478;13.448;2023-11-21T00:20:35;13.65;;;8.93;;
37945;SDS011;23769;52.478;13.448;2023-11-21T00:23:02;13.10;;;9.50;;
37945;SDS011;23769;52.478;13.448;2023-11-21T00:25:29;15.00;;;10.13;;
37945;SDS011;23769;52.478;13.448;2023-11-21T00:27:57;19.67;;;12.00;;
37945;SDS011;23769;52.478;13.448;2023-11-21T00:30:26;16.17;;;9.52;;
37945;SDS011;23769;52.478;13.448;2023-11-21T00:32:54;17.52;;;10.90;;
37945;SDS011;23769;52.478;13.448;2023-11-21T00:35:22;18.23;;;11.27;;
37945;SDS011;23769;52.478;13.448;2023-11-21T00:37:49;17.17;;;10.75;;
37945;SDS011;23769;52.478;13.448;2023-11-21T00:40:17;21.70;;;12.52;;
37945;SDS011;23769;52.478;13.448;2023-11-21T00:42:46;21.90;;;13.48;;
37945;SDS011;23769;52.478;13.448;2023-11-21T00:45:14;24.15;;;14.27;;
37945;SDS011;23769;52.478;13.448;2023-11-21T00:47:41;24.58;;;14.30;;
37945;SDS011;23769;52.478;13.448;2023-11-21T00:50:08;24.30;;;13.95;;
37945;SDS011;23769;52.478;13.448;2023-11-21T00:52:37;28.60;;;15.48;;
37945;SDS011;23769;52.478;13.448;2023-11-21T00:55:04;31.85;;;16.17;;
37945;SDS011;23769;52.478;13.448;2023-11-21T00:57:32;34.05;;;17.13;;
37945;SDS011;23769;52.478;13.448;2023-11-21T01:00:00;35.38;;;17.75;;
37945;SDS011;23769;52.478;13.448;2023-11-21T01:02:31;34.37;;;18.00;;
37945;SDS011;23769;52.478;13.448;2023-11-21T01:05:00;36.08;;;17.60;;
37945;SDS011;23769;52.478;13.448;2023-11-21T01:07:28;33.63;;;17.90;;
37945;SDS011;23769;52.478;13.448;2023-11-21T01:09:57;33.28;;;18.05;;
37945;SDS011;23769;52.478;13.448;2023-11-21T01:12:24;35.85;;;17.98;;
37945;SDS011;23769;52.478;13.448;2023-11-21T01:14:51;35.80;;;17.88;;
37945;SDS011;23769;52.478;13.448;2023-11-21T01:17:19;41.70;;;19.45;;
37945;SDS011;23769;52.478;13.448;2023-11-21T01:19:47;45.35;;;20.02;;
37945;SDS011;23769;52.478;13.448;2023-11-21T01:22:15;34.88;;;17.60;;
37945;SDS011;23769;52.478;13.448;2023-11-21T01:24:42;38.47;;;18.23;;
37945;SDS011;23769;52.478;13.448;2023-11-21T01:27:11;40.97;;;19.13;;
37945;SDS011;23769;52.478;13.448;2023-11-21T01:29:38;42.70;;;19.33;;
37945;SDS011;23769;52.478;13.448;2023-11-21T01:32:06;44.03;;;20.98;;
37945;SDS011;23769;52.478;13.448;2023-11-21T01:34:35;46.08;;;20.45;;
37945;SDS011;23769;52.478;13.448;2023-11-21T01:37:02;50.05;;;21.45;;
37945;SDS011;23769;52.478;13.448;2023-11-21T01:39:30;57.38;;;21.48;;
37945;SDS011;23769;52.478;13.448;2023-11-21T01:41:57;50.28;;;24.05;;
37945;SDS011;23769;52.478;13.448;2023-11-21T01:44:26;51.03;;;23.27;;
37945;SDS011;23769;52.478;13.448;2023-11-21T01:46:54;60.42;;;25.13;;
37945;SDS011;23769;52.478;13.448;2023-11-21T01:49:22;66.05;;;26.48;;
37945;SDS011;23769;52.478;13.448;2023-11-21T01:51:50;65.15;;;26.63;;
37945;SDS011;23769;52.478;13.448;2023-11-21T01:54:18;71.45;;;26.40;;
37945;SDS011;23769;52.478;13.448;2023-11-21T01:56:45;73.05;;;26.35;;
37945;SDS011;23769;52.478;13.448;2023-11-21T01:59:14;67.57;;;27.30;;
37945;SDS011;23769;52.478;13.448;2023-11-21T02:01:45;64.63;;;26.55;;
37945;SDS011;23769;52.478;13.448;2023-11-21T02:04:12;66.38;;;24.13;;
37945;SDS011;23769;52.478;13.448;2023-11-21T02:06:40;70.03;;;24.20;;
37945;SDS011;23769;52.478;13.448;2023-11-21T02:09:08;62.78;;;22.70;;
37945;SDS011;23769;52.478;13.448;2023-11-21T02:11:36;63.55;;;25.05;;
37945;SDS011;23769;52.478;13.448;2023-11-21T02:14:04;56.35;;;20.98;;
37945;SDS011;23769;52.478;13.448;2023-11-21T02:16:34;62.15;;;22.77;;
37945;SDS011;23769;52.478;13.448;2023-11-21T02:19:02;60.53;;;21.80;;
37945;SDS011;23769;52.478;13.448;2023-11-21T02:21:35;55.80;;;20.75;;
37945;SDS011;23769;52.478;13.448;2023-11-21T02:24:07;46.20;;;18.88;;
37945;SDS011;23769;52.478;13.448;2023-11-21T02:26:35;53.22;;;17.50;;
37945;SDS011;23769;52.478;13.448;2023-11-21T02:29:02;42.20;;;17.90;;
37945;SDS011;23769;52.478;13.448;2023-11-21T02:31:30;40.47;;;15.82;;
37945;SDS011;23769;52.478;13.448;2023-11-21T02:33:58;43.10;;;15.98;;
37945;SDS011;23769;52.478;13.448;2023-11-21T02:36:26;34.28;;;13.90;;
37945;SDS011;23769;52.478;13.448;2023-11-21T02:38:53;36.20;;;15.52;;
37945;SDS011;23769;52.478;13.448;2023-11-21T02:41:22;35.55;;;14.20;;
37945;SDS011;23769;52.478;13.448;2023-11-21T02:43:49;38.30;;;15.45;;
37945;SDS011;23769;52.478;13.448;2023-11-21T02:46:16;29.73;;;12.70;;
37945;SDS011;23769;52.478;13.448;2023-11-21T02:48:43;37.90;;;15.00;;
37945;SDS011;23769;52.478;13.448;2023-11-21T02:51:10;29.33;;;12.77;;
37945;SDS011;23769;52.478;13.448;2023-11-21T02:53:38;28.30;;;12.07;;
37945;SDS011;23769;52.478;13.448;2023-11-21T02:56:05;31.88;;;13.13;;
37945;SDS011;23769;52.478;13.448;2023-11-21T02:58:34;27.60;;;13.23;;
37945;SDS011;23769;52.478;13.448;2023-11-21T03:01:01;24.60;;;12.77;;
37945;SDS011;23769;52.478;13.448;2023-11-21T03:03:32;33.45;;;13.95;;
37945;SDS011;23769;52.478;13.448;2023-11-21T03:06:00;26.65;;;11.73;;
37945;SDS011;23769;52.478;13.448;2023-11-21T03:08:27;23.90;;;11.93;;
37945;SDS011;23769;52.478;13.448;2023-11-21T03:10:54;26.40;;;11.75;;
37945;SDS011;23769;52.478;13.448;2023-11-21T03:13:21;25.73;;;12.00;;
37945;SDS011;23769;52.478;13.448;2023-11-21T03:15:50;24.50;;;11.88;;
37945;SDS011;23769;52.478;13.448;2023-11-21T03:18:17;22.58;;;11.55;;
37945;SDS011;23769;52.478;13.448;2023-11-21T03:20:47;24.50;;;12.52;;
37945;SDS011;23769;52.478;13.448;2023-11-21T03:23:14;16.92;;;10.15;;
37945;SDS011;23769;52.478;13.448;2023-11-21T03:25:42;18.77;;;11.07;;
37945;SDS011;23769;52.478;13.448;2023-11-21T03:28:09;19.88;;;11.57;;
37945;SDS011;23769;52.478;13.448;2023-11-21T03:30:36;17.98;;;11.85;;
37945;SDS011;23769;52.478;13.448;2023-11-21T03:33:05;15.90;;;10.40;;
37945;SDS011;23769;52.478;13.448;2023-11-21T03:35:32;13.80;;;8.98;;
37945;SDS011;23769;52.478;13.448;2023-11-21T03:38:00;16.80;;;10.30;;
37945;SDS011;23769;52.478;13.448;2023-11-21T03:40:27;14.25;;;9.43;;
37945;SDS011;23769;52.478;13.448;2023-11-21T03:42:54;17.90;;;9.88;;
37945;SDS011;23769;52.478;13.448;2023-11-21T03:45:22;13.45;;;8.38;;
37945;SDS011;23769;52.478;13.448;2023-11-21T03:47:49;13.98;;;8.55;;
37945;SDS011;23769;52.478;13.448;2023-11-21T03:50:18;12.30;;;8.30;;
37945;SDS011;23769;52.478;13.448;2023-11-21T03:52:45;13.85;;;8.82;;
37945;SDS011;23769;52.478;13.448;2023-11-21T03:55:13;12.82;;;8.85;;
37945;SDS011;23769;52.478;13.448;2023-11-21T03:57:40;14.18;;;7.88;;
37945;SDS011;23769;52.478;13.448;2023-11-21T04:00:08;15.98;;;9.25;;
37945;SDS011;23769;52.478;13.448;2023-11-21T04:02:35;16.08;;;7.90;;
37945;SDS011;23769;52.478;13.448;2023-11-21T04:05:02;14.18;;;9.30;;
37945;SDS011;23769;52.478;13.448;2023-11-21T04:07:31;14.80;;;9.68;;
37945;SDS011;23769;52.478;13.448;2023-11-21T04:09:58;13.48;;;8.32;;
37945;SDS011;23769;52.478;13.448;2023-11-21T04:12:26;11.85;;;8.02;;
37945;SDS011;23769;52.478;13.448;2023-11-21T04:14:53;9.85;;;6.65;;
37945;SDS011;23769;52.478;13.448;2023-11-21T04:17:20;10.65;;;7.47;;
37945;SDS011;23769;52.478;13.448;2023-11-21T04:19:47;13.07;;;8.00;;
37945;SDS011;23769;52.478;13.448;2023-11-21T04:22:14;11.75;;;7.15;;
37945;SDS011;23769;52.478;13.448;2023-11-21T04:24:44;11.00;;;7.40;;
37945;SDS011;23769;52.478;13.448;2023-11-21T04:27:11;12.50;;;7.45;;
37945;SDS011;23769;52.478;13.448;2023-11-21T04:29:39;10.27;;;6.72;;
37945;SDS011;23769;52.478;13.448;2023-11-21T04:32:06;14.48;;;8.52;;
37945;SDS011;23769;52.478;13.448;2023-11-21T04:34:34;10.80;;;7.30;;
37945;SDS011;23769;52.478;13.448;2023-11-21T04:37:01;12.15;;;7.90;;
37945;SDS011;23769;52.478;13.448;2023-11-21T04:39:31;11.02;;;7.53;;
37945;SDS011;23769;52.478;13.448;2023-11-21T04:41:59;10.57;;;6.43;;
37945;SDS011;23769;52.478;13.448;2023-11-21T04:44:27;10.38;;;7.00;;
37945;SDS011;23769;52.478;13.448;2023-11-21T04:46:54;10.88;;;6.28;;
37945;SDS011;23769;52.478;13.448;2023-11-21T04:49:21;10.82;;;6.82;;
37945;SDS011;23769;52.478;13.448;2023-11-21T04:51:48;11.60;;;6.55;;
37945;SDS011;23769;52.478;13.448;2023-11-21T04:54:16;11.55;;;6.50;;
37945;SDS011;23769;52.478;13.448;2023-11-21T04:56:43;9.57;;;6.80;;
37945;SDS011;23769;52.478;13.448;2023-11-21T04:59:12;10.55;;;6.63;;
37945;SDS011;23769;52.478;13.448;2023-11-21T05:01:39;9.23;;;6.00;;
37945;SDS011;23769;52.478;13.448;2023-11-21T05:04:06;10.80;;;6.65;;
37945;SDS011;23769;52.478;13.448;2023-11-21T05:06:33;9.52;;;5.65;;
37945;SDS011;23769;52.478;13.448;2023-11-21T05:09:01;13.02;;;7.03;;
37945;SDS011;23769;52.478;13.448;2023-11-21T05:11:28;9.73;;;6.05;;
37945;SDS011;23769;52.478;13.448;2023-11-21T05:13:57;9.40;;;5.80;;
37945;SDS011;23769;52.478;13.448;2023-11-21T05:16:27;11.45;;;6.28;;
37945;SDS011;23769;52.478;13.448;2023-11-21T05:18:55;8.52;;;5.38;;
37945;SDS011;23769;52.478;13.448;2023-11-21T05:21:25;9.02;;;5.82;;
37945;SDS011;23769;52.478;13.448;2023-11-21T05:23:52;10.25;;;6.15;;
37945;SDS011;23769;52.478;13.448;2023-11-21T05:26:20;13.88;;;6.05;;
37945;SDS011;23769;52.478;13.448;2023-11-21T05:28:47;9.48;;;6.15;;
37945;SDS011;23769;52.478;13.448;2023-11-21T05:31:15;9.40;;;5.68;;
37945;SDS011;23769;52.478;13.448;2023-11-21T05:33:43;9.43;;;5.70;;
37945;SDS011;23769;52.478;13.448;2023-11-21T05:36:10;8.25;;;5.90;;
37945;SDS011;23769;52.478;13.448;2023-11-21T05:38:38;10.15;;;6.00;;
37945;SDS011;23769;52.478;13.448;2023-11-21T05:41:06;10.15;;;6.10;;
37945;SDS011;23769;52.478;13.448;2023-11-21T05:43:36;8.75;;;5.20;;
37945;SDS011;23769;52.478;13.448;2023-11-21T05:46:03;7.93;;;5.47;;
37945;SDS011;23769;52.478;13.448;2023-11-21T05:48:32;10.93;;;6.35;;
37945;SDS011;23769;52.478;13.448;2023-11-21T05:51:00;8.60;;;4.82;;
37945;SDS011;23769;52.478;13.448;2023-11-21T05:53:28;10.10;;;5.72;;
37945;SDS011;23769;52.478;13.448;2023-11-21T05:55:54;7.68;;;5.03;;
37945;SDS011;23769;52.478;13.448;2023-11-21T05:58:21;8.30;;;5.20;;
37945;SDS011;23769;52.478;13.448;2023-11-21T06:00:48;8.27;;;5.45;;
37945;SDS011;23769;52.478;13.448;2023-11-21T06:03:16;9.80;;;5.57;;
37945;SDS011;23769;52.478;13.448;2023-11-21T06:05:43;8.35;;;5.20;;
37945;SDS011;23769;52.478;13.448;2023-11-21T06:08:12;7.78;;;4.75;;
37945;SDS011;23769;52.478;13.448;2023-11-21T06:10:42;10.23;;;5.82;;
37945;SDS011;23769;52.478;13.448;2023-11-21T06:13:09;9.65;;;5.50;;
37945;SDS011;23769;52.478;13.448;2023-11-21T06:15:37;11.15;;;5.88;;
37945;SDS011;23769;52.478;13.448;2023-11-21T06:18:04;10.73;;;6.90;;
37945;SDS011;23769;52.478;13.448;2023-11-21T06:20:35;12.68;;;7.18;;
37945;SDS011;23769;52.478;13.448;2023-11-21T06:23:03;10.77;;;6.53;;
37945;SDS011;23769;52.478;13.448;2023-11-21T06:25:32;10.45;;;6.35;;
37945;SDS011;23769;52.478;13.448;2023-11-21T06:28:01;9.75;;;6.03;;
37945;SDS011;23769;52.478;13.448;2023-11-21T06:30:28;10.27;;;6.00;;
37945;SDS011;23769;52.478;13.448;2023-11-21T06:32:56;9.52;;;6.03;;
37945;SDS011;23769;52.478;13.448;2023-11-21T06:35:23;11.32;;;6.43;;
37945;SDS011;23769;52.478;13.448;2023-11-21T06:37:52;10.45;;;6.38;;
37945;SDS011;23769;52.478;13.448;2023-11-21T06:40:19;9.45;;;5.80;;
37945;SDS011;23769;52.478;13.448;2023-11-21T06:42:48;8.50;;;5.10;;
37945;SDS011;23769;52.478;13.448;2023-11-21T06:45:16;10.05;;;6.38;;
37945;SDS011;23769;52.478;13.448;2023-11-21T06:47:43;10.73;;;6.07;;
37945;SDS011;23769;52.478;13.448;2023-11-21T06:50:11;8.85;;;5.57;;
37945;SDS011;23769;52.478;13.448;2023-11-21T06:52:38;9.55;;;5.80;;
37945;SDS011;23769;52.478;13.448;2023-11-21T06:55:05;11.05;;;6.25;;
37945;SDS011;23769;52.478;13.448;2023-11-21T06:57:35;9.10;;;5.53;;
37945;SDS011;23769;52.478;13.448;2023-11-21T07:00:05;9.23;;;5.60;;
37945;SDS011;23769;52.478;13.448;2023-11-21T07:02:34;8.10;;;4.80;;
37945;SDS011;23769;52.478;13.448;2023-11-21T07:05:01;9.55;;;6.07;;
37945;SDS011;23769;52.478;13.448;2023-11-21T07:07:28;9.82;;;5.75;;
37945;SDS011;23769;52.478;13.448;2023-11-21T07:09:55;8.85;;;5.28;;
37945;SDS011;23769;52.478;13.448;2023-11-21T07:12:22;10.82;;;6.38;;
37945;SDS011;23769;52.478;13.448;2023-11-21T07:14:51;8.73;;;5.55;;
37945;SDS011;23769;52.478;13.448;2023-11-21T07:17:20;9.98;;;5.55;;
37945;SDS011;23769;52.478;13.448;2023-11-21T07:19:48;9.48;;;5.88;;
37945;SDS011;23769;52.478;13.448;2023-11-21T07:22:16;10.13;;;6.03;;
37945;SDS011;23769;52.478;13.448;2023-11-21T07:24:47;9.15;;;5.75;;
37945;SDS011;23769;52.478;13.448;2023-11-21T07:27:15;9.00;;;4.97;;
37945;SDS011;23769;52.478;13.448;2023-11-21T07:29:42;9.27;;;5.32;;
37945;SDS011;23769;52.478;13.448;2023-11-21T07:32:09;8.45;;;4.88;;
37945;SDS011;23769;52.478;13.448;2023-11-21T07:34:39;9.95;;;6.00;;
37945;SDS011;23769;52.478;13.448;2023-11-21T07:37:06;9.73;;;5.90;;
37945;SDS011;23769;52.478;13.448;2023-11-21T07:39:34;8.88;;;5.45;;
37945;SDS011;23769;52.478;13.448;2023-11-21T07:42:01;9.32;;;5.93;;
37945;SDS011;23769;52.478;13.448;2023-11-21T07:44:29;10.52;;;5.25;;
37945;SDS011;23769;52.478;13.448;2023-11-21T07:46:56;6.90;;;4.70;;
37945;SDS011;23769;52.478;13.448;2023-11-21T07:49:24;7.32;;;4.78;;
37945;SDS011;23769;52.478;13.448;2023-11-21T07:51:53;7.00;;;4.28;;
37945;SDS011;23769;52.478;13.448;2023-11-21T07:54:20;7.97;;;4.72;;
37945;SDS011;23769;52.478;13.448;2023-11-21T07:56:47;7.80;;;4.25;;
37945;SDS011;23769;52.478;13.448;2023-11-21T07:59:14;7.07;;;3.88;;
37945;SDS011;23769;52.478;13.448;2023-11-21T08:01:43;9.23;;;4.15;;
37945;SDS011;23769;52.478;13.448;2023-11-21T08:04:11;9.60;;;4.70;;
37945;SDS011;23769;52.478;13.448;2023-11-21T08:06:38;11.13;;;5.18;;
37945;SDS011;23769;52.478;13.448;2023-11-21T08:09:08;12.27;;;4.72;;
37945;SDS011;23769;52.478;13.448;2023-11-21T08:11:37;11.32;;;5.65;;
37945;SDS011;23769;52.478;13.448;2023-11-21T08:14:04;11.48;;;5.35;;
37945;SDS011;23769;52.478;13.448;2023-11-21T08:16:31;12.45;;;5.50;;
37945;SDS011;23769;52.478;13.448;2023-11-21T08:18:58;13.48;;;6.10;;
37945;SDS011;23769;52.478;13.448;2023-11-21T08:21:26;14.38;;;6.47;;
37945;SDS011;23769;52.478;13.448;2023-11-21T08:23:54;16.70;;;5.95;;
37945;SDS011;23769;52.478;13.448;2023-11-21T08:26:23;13.43;;;6.25;;
37945;SDS011;23769;52.478;13.448;2023-11-21T08:28:50;17.48;;;6.50;;
37945;SDS011;23769;52.478;13.448;2023-11-21T08:31:23;19.15;;;6.50;;
37945;SDS011;23769;52.478;13.448;2023-11-21T08:33:50;16.35;;;7.20;;
37945;SDS011;23769;52.478;13.448;2023-11-21T08:36:20;17.98;;;7.57;;
37945;SDS011;23769;52.478;13.448;2023-11-21T08:38:48;17.90;;;7.55;;
37945;SDS011;23769;52.478;13.448;2023-11-21T08:41:17;18.55;;;6.60;;
37945;SDS011;23769;52.478;13.448;2023-11-21T08:43:47;12.07;;;6.25;;
37945;SDS011;23769;52.478;13.448;2023-11-21T08:46:15;18.80;;;7.10;;
37945;SDS011;23769;52.478;13.448;2023-11-21T08:48:43;16.52;;;6.63;;
37945;SDS011;23769;52.478;13.448;2023-11-21T08:51:13;17.65;;;7.75;;
37945;SDS011;23769;52.478;13.448;2023-11-21T08:53:40;15.98;;;6.45;;
37945;SDS011;23769;52.478;13.448;2023-11-21T08:56:08;17.15;;;6.88;;
37945;SDS011;23769;52.478;13.448;2023-11-21T08:58:39;19.10;;;7.00;;
37945;SDS011;23769;52.478;13.448;2023-11-21T09:01:08;18.98;;;7.30;;
37945;SDS011;23769;52.478;13.448;2023-11-21T09:03:35;19.25;;;7.13;;
37945;SDS011;23769;52.478;13.448;2023-11-21T09:06:03;17.75;;;7.50;;
37945;SDS011;23769;52.478;13.448;2023-11-21T09:08:30;20.77;;;7.47;;
37945;SDS011;23769;52.478;13.448;2023-11-21T09:10:57;17.80;;;7.03;;
37945;SDS011;23769;52.478;13.448;2023-11-21T09:13:25;15.75;;;7.45;;
37945;SDS011;23769;52.478;13.448;2023-11-21T09:15:52;15.23;;;6.88;;
37945;SDS011;23769;52.478;13.448;2023-11-21T09:18:21;16.23;;;6.72;;
37945;SDS011;23769;52.478;13.448;2023-11-21T09:20:48;13.85;;;6.18;;
37945;SDS011;23769;52.478;13.448;2023-11-21T09:23:16;16.92;;;6.25;;
37945;SDS011;23769;52.478;13.448;2023-11-21T09:25:43;17.77;;;6.60;;
37945;SDS011;23769;52.478;13.448;2023-11-21T09:28:11;15.93;;;6.32;;
37945;SDS011;23769;52.478;13.448;2023-11-21T09:30:38;15.18;;;6.22;;
37945;SDS011;23769;52.478;13.448;2023-11-21T09:33:06;16.95;;;7.00;;
37945;SDS011;23769;52.478;13.448;2023-11-21T09:35:37;12.73;;;5.68;;
37945;SDS011;23769;52.478;13.448;2023-11-21T09:38:04;11.40;;;4.80;;
37945;SDS011;23769;52.478;13.448;2023-11-21T09:40:35;12.43;;;4.28;;
37945;SDS011;23769;52.478;13.448;2023-11-21T09:43:04;11.40;;;4.00;;
37945;SDS011;23769;52.478;13.448;2023-11-21T09:45:34;9.68;;;3.47;;
37945;SDS011;23769;52.478;13.448;2023-11-21T09:48:02;6.05;;;3.22;;
37945;SDS011;23769;52.478;13.448;2023-11-21T09:50:31;6.88;;;2.72;;
37945;SDS011;23769;52.478;13.448;2023-11-21T09:53:05;5.75;;;2.85;;
37945;SDS011;23769;52.478;13.448;2023-11-21T09:55:39;5.45;;;2.72;;
37945;SDS011;23769;52.478;13.448;2023-11-21T09:58:09;6.47;;;2.83;;
37945;SDS011;23769;52.478;13.448;2023-11-21T10:00:37;4.95;;;2.15;;
37945;SDS011;23769;52.478;13.448;2023-11-21T10:03:06;5.30;;;2.53;;
37945;SDS011;23769;52.478;13.448;2023-11-21T10:05:33;5.20;;;2.60;;
37945;SDS011;23769;52.478;13.448;2023-11-21T10:08:01;3.85;;;2.10;;
37945;SDS011;23769;52.478;13.448;2023-11-21T10:10:29;3.58;;;2.15;;
37945;SDS011;23769;52.478;13.448;2023-11-21T10:13:00;4.72;;;2.08;;
37945;SDS011;23769;52.478;13.448;2023-11-21T10:15:31;4.68;;;1.88;;
37945;SDS011;23769;52.478;13.448;2023-11-21T10:18:00;2.67;;;1.60;;
37945;SDS011;23769;52.478;13.448;2023-11-21T10:20:28;3.22;;;1.80;;
37945;SDS011;23769;52.478;13.448;2023-11-21T10:22:56;3.67;;;1.95;;
37945;SDS011;23769;52.478;13.448;2023-11-21T10:25:23;3.33;;;1.90;;
37945;SDS011;23769;52.478;13.448;2023-11-21T10:27:55;3.97;;;2.13;;
37945;SDS011;23769;52.478;13.448;2023-11-21T10:30:27;2.80;;;1.75;;
37945;SDS011;23769;52.478;13.448;2023-11-21T10:32:58;4.05;;;1.90;;
37945;SDS011;23769;52.478;13.448;2023-11-21T10:35:38;6.65;;;2.40;;
37945;SDS011;23769;52.478;13.448;2023-11-21T10:38:06;4.63;;;2.80;;
37945;SDS011;23769;52.478;13.448;2023-11-21T10:40:37;5.50;;;2.42;;
37945;SDS011;23769;52.478;13.448;2023-11-21T10:43:09;5.85;;;2.17;;
37945;SDS011;23769;52.478;13.448;2023-11-21T10:45:36;4.43;;;2.03;;
37945;SDS011;23769;52.478;13.448;2023-11-21T10:48:07;5.45;;;2.35;;
37945;SDS011;23769;52.478;13.448;2023-11-21T10:50:36;3.78;;;2.10;;
37945;SDS011;23769;52.478;13.448;2023-11-21T10:53:03;2.92;;;2.05;;
37945;SDS011;23769;52.478;13.448;2023-11-21T10:55:31;3.95;;;2.17;;
37945;SDS011;23769;52.478;13.448;2023-11-21T10:57:59;7.18;;;2.22;;
37945;SDS011;23769;52.478;13.448;2023-11-21T11:00:28;4.97;;;2.22;;
37945;SDS011;23769;52.478;13.448;2023-11-21T11:02:56;5.13;;;2.25;;
37945;SDS011;23769;52.478;13.448;2023-11-21T11:05:24;4.82;;;2.53;;
37945;SDS011;23769;52.478;13.448;2023-11-21T11:07:55;4.15;;;2.65;;
37945;SDS011;23769;52.478;13.448;2023-11-21T11:10:25;4.10;;;2.80;;
37945;SDS011;23769;52.478;13.448;2023-11-21T11:12:53;4.75;;;2.67;;
37945;SDS011;23769;52.478;13.448;2023-11-21T11:15:20;5.63;;;2.90;;
37945;SDS011;23769;52.478;13.448;2023-11-21T11:17:49;5.88;;;3.08;;
37945;SDS011;23769;52.478;13.448;2023-11-21T11:20:17;6.13;;;3.33;;
37945;SDS011;23769;52.478;13.448;2023-11-21T11:22:48;6.00;;;3.15;;
37945;SDS011;23769;52.478;13.448;2023-11-21T11:28:01;6.50;;;3.03;;
37945;SDS011;23769;52.478;13.448;2023-11-21T11:30:35;5.68;;;3.83;;
37945;SDS011;23769;52.478;13.448;2023-11-21T11:33:09;7.82;;;3.60;;
37945;SDS011;23769;52.478;13.448;2023-11-21T11:35:40;5.88;;;3.72;;
37945;SDS011;23769;52.478;13.448;2023-11-21T11:38:13;6.10;;;3.63;;
37945;SDS011;23769;52.478;13.448;2023-11-21T11:40:41;5.28;;;3.83;;
37945;SDS011;23769;52.478;13.448;2023-11-21T11:43:08;4.25;;;3.38;;
37945;SDS011;23769;52.478;13.448;2023-11-21T11:45:36;5.72;;;3.78;;
37945;SDS011;23769;52.478;13.448;2023-11-21T11:48:08;7.70;;;4.78;;
37945;SDS011;23769;52.478;13.448;2023-11-21T11:50:41;8.43;;;5.07;;
37945;SDS011;23769;52.478;13.448;2023-11-21T11:53:14;6.22;;;4.32;;
37945;SDS011;23769;52.478;13.448;2023-11-21T11:55:41;8.55;;;4.22;;
37945;SDS011;23769;52.478;13.448;2023-11-21T11:58:08;5.32;;;3.60;;
37945;SDS011;23769;52.478;13.448;2023-11-21T12:00:36;6.05;;;3.50;;
37945;SDS011;23769;52.478;13.448;2023-11-21T12:03:05;6.38;;;3.17;;
37945;SDS011;23769;52.478;13.448;2023-11-21T12:05:34;7.03;;;3.85;;
37945;SDS011;23769;52.478;13.448;2023-11-21T12:08:04;4.85;;;3.05;;
37945;SDS011;23769;52.478;13.448;2023-11-21T12:10:31;10.00;;;5.35;;
37945;SDS011;23769;52.478;13.448;2023-11-21T12:12:59;5.35;;;3.20;;
37945;SDS011;23769;52.478;13.448;2023-11-21T12:15:27;7.35;;;4.47;;
37945;SDS011;23769;52.478;13.448;2023-11-21T12:17:56;6.57;;;4.15;;
37945;SDS011;23769;52.478;13.448;2023-11-21T12:20:24;5.85;;;3.65;;
37945;SDS011;23769;52.478;13.448;2023-11-21T12:22:54;5.75;;;2.55;;
37945;SDS011;23769;52.478;13.448;2023-11-21T12:25:25;6.63;;;4.18;;
37945;SDS011;23769;52.478;13.448;2023-11-21T12:27:54;6.85;;;3.88;;
37945;SDS011;23769;52.478;13.448;2023-11-21T12:30:22;6.00;;;3.55;;
37945;SDS011;23769;52.478;13.448;2023-11-21T12:32:53;4.95;;;3.17;;
37945;SDS011;23769;52.478;13.448;2023-11-21T12:35:22;5.70;;;3.30;;
37945;SDS011;23769;52.478;13.448;2023-11-21T12:37:50;6.82;;;3.85;;
37945;SDS011;23769;52.478;13.448;2023-11-21T12:40:20;7.35;;;3.60;;
37945;SDS011;23769;52.478;13.448;2023-11-21T12:42:48;4.07;;;2.70;;
37945;SDS011;23769;52.478;13.448;2023-11-21T12:45:19;4.15;;;2.38;;
37945;SDS011;23769;52.478;13.448;2023-11-21T12:47:47;6.38;;;2.58;;
37945;SDS011;23769;52.478;13.448;2023-11-21T12:50:15;3.42;;;2.22;;
37945;SDS011;23769;52.478;13.448;2023-11-21T12:52:48;4.55;;;2.80;;
37945;SDS011;23769;52.478;13.448;2023-11-21T12:55:16;6.28;;;4.30;;
37945;SDS011;23769;52.478;13.448;2023-11-21T12:57:49;4.53;;;3.05;;
37945;SDS011;23769;52.478;13.448;2023-11-21T13:00:19;6.40;;;2.95;;
37945;SDS011;23769;52.478;13.448;2023-11-21T13:03:13;6.07;;;2.95;;
37945;SDS011;23769;52.478;13.448;2023-11-21T13:05:43;4.32;;;3.13;;
37945;SDS011;23769;52.478;13.448;2023-11-21T13:08:12;4.93;;;3.13;;
37945;SDS011;23769;52.478;13.448;2023-11-21T13:10:44;3.30;;;2.28;;
37945;SDS011;23769;52.478;13.448;2023-11-21T13:13:13;4.28;;;2.95;;
37945;SDS011;23769;52.478;13.448;2023-11-21T13:15:47;4.80;;;2.38;;
37945;SDS011;23769;52.478;13.448;2023-11-21T13:18:14;4.65;;;2.80;;
37945;SDS011;23769;52.478;13.448;2023-11-21T13:20:42;6.20;;;3.05;;
37945;SDS011;23769;52.478;13.448;2023-11-21T13:23:10;4.28;;;2.97;;
37945;SDS011;23769;52.478;13.448;2023-11-21T13:25:38;4.65;;;2.58;;
37945;SDS011;23769;52.478;13.448;2023-11-21T13:28:06;5.00;;;3.15;;
37945;SDS011;23769;52.478;13.448;2023-11-21T13:30:36;5.90;;;2.97;;
37945;SDS011;23769;52.478;13.448;2023-11-21T13:33:05;4.47;;;2.70;;
37945;SDS011;23769;52.478;13.448;2023-11-21T13:35:33;5.55;;;3.38;;
37945;SDS011;23769;52.478;13.448;2023-11-21T13:38:03;5.20;;;3.45;;
37945;SDS011;23769;52.478;13.448;2023-11-21T13:40:31;5.15;;;3.15;;
37945;SDS011;23769;52.478;13.448;2023-11-21T13:43:04;10.68;;;5.28;;
37945;SDS011;23769;52.478;13.448;2023-11-21T13:45:36;5.93;;;3.70;;
37945;SDS011;23769;52.478;13.448;2023-11-21T13:48:04;8.32;;;4.45;;
37945;SDS011;23769;52.478;13.448;2023-11-21T13:50:35;8.30;;;4.75;;
37945;SDS011;23769;52.478;13.448;2023-11-21T13:53:02;10.35;;;4.95;;
37945;SDS011;23769;52.478;13.448;2023-11-21T13:55:35;6.65;;;4.28;;
37945;SDS011;23769;52.478;13.448;2023-11-21T13:58:04;9.45;;;5.25;;
37945;SDS011;23769;52.478;13.448;2023-11-21T14:00:36;10.82;;;5.28;;
37945;SDS011;23769;52.478;13.448;2023-11-21T14:03:10;9.60;;;5.63;;
37945;SDS011;23769;52.478;13.448;2023-11-21T14:05:46;7.90;;;5.07;;
37945;SDS011;23769;52.478;13.448;2023-11-21T14:08:16;8.25;;;4.50;;
37945;SDS011;23769;52.478;13.448;2023-11-21T14:10:45;7.45;;;5.00;;
37945;SDS011;23769;52.478;13.448;2023-11-21T14:13:20;11.68;;;5.22;;
37945;SDS011;23769;52.478;13.448;2023-11-21T14:15:49;8.32;;;5.35;;
37945;SDS011;23769;52.478;13.448;2023-11-21T14:18:22;10.40;;;6.47;;
37945;SDS011;23769;52.478;13.448;2023-11-21T14:23:22;10.75;;;6.55;;
37945;SDS011;23769;52.478;13.448;2023-11-21T14:25:49;12.52;;;7.75;;
37945;SDS011;23769;52.478;13.448;2023-11-21T14:28:17;12.45;;;7.90;;
37945;SDS011;23769;52.478;13.448;2023-11-21T14:30:44;14.40;;;8.50;;
37945;SDS011;23769;52.478;13.448;2023-11-21T14:33:13;13.80;;;9.18;;
37945;SDS011;23769;52.478;13.448;2023-11-21T14:35:41;15.38;;;9.90;;